New Bedford, MA (02740)

10:30 PM EST on February 10, 2016 (GMT -0500)
Fairhaven Center | | Change Station
CLOSE
Current Station
Personal Weather Station
Location: Fairhaven, MA
Elevation: 15 ft
Nearby Weather Stations
Active Advisory: Special Statement

Elev 15 ft 41.64 °N, 70.90 °W | Updated 13 seconds ago

Clear
Clear
31.6 °F
Feels Like 32 °F
N
0.0
Wind Variable Wind from WNW
Gusts 0.0 mph

Today
High -- | Low -- °F
--% Chance of Precip.
Yesterday
High -- | Low -- °F
Precip. -- in
Pressure 29.65 in
Visibility 3.0 miles
Clouds Few 7000 ft
Windchill 32 °F
Dew Point 30 °F
Humidity 93%
Rainfall 0.09 in
Snow Depth Not available.
6:46 AM 5:10 PM
Waxing Crescent, 9% visible
SPECI KEWB 110256Z AUTO 27003KT 3SM BR FEW070 M03/M03 A2965 RMK AO2 I1000 T10281028
Pressure 29.65 in
Visibility 3.0 miles
Clouds Few 7000 ft
Windchill 32 °F
Dew Point 30 °F
Humidity 93%
Rainfall 0.09 in
Snow Depth Not available.
6:46 AM 5:10 PM
Waxing Crescent, 9% visible
SPECI KEWB 110256Z AUTO 27003KT 3SM BR FEW070 M03/M03 A2965 RMK AO2 I1000 T10281028

10-Day Weather Forecast

Almanac

Astronomy

Feb. 10, 2016 Rise Set
Actual Time
Civil Twilight
Nautical Twilight
Astronomical Twilight
Moon
Length of Visible Light
Length of Day
Tomorrow will be .
, % of the Moon is Illuminated

Today's Extremes

State Highs State Lows

Community

WunderPhotos

Upload Photos

1,891,993 photos uploaded!

WunderBlog® & News

Nearby

Air Quality

  Air Quality AQ Index Pollutant
Not available.

Snow Depth

Station Depth Elevation

Earthquake Activity

City Distance Mag. Time & Date
Minimum magnitude displayed is 2.5.

Coastal Water Temperatures

Place Temperature

Stations

Nearby Weather Stations

Station Location Temp. Windchill Dew Point Humidity Wind Precip. Elev Updated Type
                   

Watches & Warnings

Special Statement
Issued: 7:53 PM EST Feb. 10, 2016 – National Weather Service

... Patchy black ice may develop this evening...

Isolated snow showers will be coming to an end this evening.
However... temperatures were dropping below freezing and winds
were rather light. This may allow patchy black ice to develop on
wet roads and walkways from the earlier snow showers. Motorists
are urged to drive with extra caution this evening as roads that
appear wet may be icy.


Frank


753 PM EST Wed Feb 10 2016

... Patchy black ice may develop this evening...

Isolated snow showers will be coming to an end this evening.
However... temperatures were dropping below freezing and winds
were rather light. This may allow patchy black ice to develop on
wet roads and walkways from the earlier snow showers. Motorists
are urged to drive with extra caution this evening as roads that
appear wet may be icy.


Frank